This is the latest recevied weather packets stored in our database for station/object IR9AK-10. If no packets are shown the sender has not sent any weather packets the latest 10 day(s).
| Time | Temp. | Humidity | Pressure | Rain* | Wind** | Luminosity | Snow |
|---|---|---|---|---|---|---|---|
| 1777652339 | 18.33° C | 45% | 1063.2 hPa | - | - | - | - |
| 1777651740 | 18.33° C | 45% | 1063.3 hPa | - | - | - | - |
| 1777651141 | 18.33° C | 46% | 1063.2 hPa | - | - | - | - |
| 1777650542 | 18.33° C | 45% | 1063.2 hPa | - | - | - | - |
| 1777649942 | 18.33° C | 45% | 1063.3 hPa | - | - | - | - |
| 1777649344 | 18.89° C | 45% | 1063.2 hPa | - | - | - | - |
| 1777648746 | 18.89° C | 45% | 1063.2 hPa | - | - | - | - |
| 1777648147 | 19.44° C | 43% | 1063.1 hPa | - | - | - | - |
| 1777647548 | 19.44° C | 44% | 1063.4 hPa | - | - | - | - |
| 1777646949 | 20° C | 48% | 1063.2 hPa | - | - | - | - |
| 1777646351 | 20° C | 46% | 1063.3 hPa | - | - | - | - |
| 1777645752 | 21.11° C | 42% | 1063.2 hPa | - | - | - | - |
| 1777645152 | 20.56° C | 43% | 1063.3 hPa | - | - | - | - |
| 1777644553 | 20.56° C | 43% | 1063.3 hPa | - | - | - | - |
| 1777643954 | 20° C | 44% | 1063.4 hPa | - | - | - | - |
| 1777643355 | 20° C | 43% | 1063.4 hPa | - | - | - | - |
| 1777642755 | 20.56° C | 46% | 1063.3 hPa | - | - | - | - |
| 1777642156 | 20.56° C | 47% | 1063.4 hPa | - | - | - | - |
| 1777641557 | 20.56° C | 48% | 1063.5 hPa | - | - | - | - |
| 1777640957 | 20.56° C | 51% | 1063.6 hPa | - | - | - | - |
| 1777640359 | 20° C | 51% | 1063.7 hPa | - | - | - | - |
| 1777639759 | 20° C | 51% | 1063.8 hPa | - | - | - | - |
| 1777639159 | 20° C | 51% | 1063.9 hPa | - | - | - | - |
| 1777638561 | 20.56° C | 52% | 1063.8 hPa | - | - | - | - |
| 1777637962 | 20.56° C | 51% | 1063.7 hPa | - | - | - | - |
* Rain since midnight (hover to see other rain measurements)
** Current wind speed in m/s (hover to see current wind gust speed)